• Join FlightAware (Why Join?)
  • Login
  • US Flag 
Rudolph Flight #1: Scheduled 
07:28PM EST


 

Airport Tracker/Info


-or-


 

Live Flight TrackerFlight Track Log ✈ SWA59 ✈ 24-Apr-2013 ✈ KSTL - KDAL

Flight Track Log - Related Links

Times and Time Zones

All times are in EDT time to prevent confusion due to time zone crossing. See the SWA59 flight status page for this flight to view local times or setup timezone preferences in your user account.

Time Position Orientation Groundspeed Altitude Reporting Facility
EDT Latitude Longitude Course Direction KTS MPH feet Rate Location/Type
08:17PM 38.7622 -90.3489 301° West 179 206 2,900  Level FAA TRACON SMA TRACON (SMA)
08:17PM 38.7694 -90.3767 288° West 213 245 3,900 3,060 Climbing FAA TRACON SMA TRACON (SMA)
08:18PM 38.7742 -90.4025 283° West 235 270 4,900 3,360 Climbing FAA TRACON SMA TRACON (SMA)
08:18PM 38.7786 -90.4292 282° West 248 285 6,200 4,200 Climbing FAA TRACON SMA TRACON (SMA)
08:18PM 38.7792 -90.4625 271° West 253 291 7,800 4,140 Climbing FAA TRACON SMA TRACON (SMA)
08:19PM 38.7681 -90.4875 240° Southwest 263 303 8,900 3,480 Climbing FAA TRACON SMA TRACON (SMA)
08:19PM 38.7503 -90.5067 220° Southwest 273 314 10,100 3,000 Climbing FAA TRACON SMA TRACON (SMA)
08:19PM 38.7267 -90.5319 220° Southwest 285 328 10,900 1,560 Climbing FAA TRACON SMA TRACON (SMA)
08:20PM 38.7058 -90.5539 219° Southwest 308 354 11,200 2,160 Climbing FAA TRACON SMA TRACON (SMA)
08:20PM 38.6778 -90.5842 220° Southwest 341 392 12,400 3,360 Climbing FAA TRACON SMA TRACON (SMA)
08:20PM 38.6544 -90.6089 220° Southwest 351 404 13,400 3,480 Climbing FAA TRACON SMA TRACON (SMA)
08:21PM 38.6314 -90.6336 220° Southwest 354 407 14,700 4,020 Climbing FAA TRACON SMA TRACON (SMA)
08:21PM 38.6025 -90.6642 220° Southwest 351 404 16,100 3,720 Climbing FAA TRACON SMA TRACON (SMA)
08:21PM 38.5789 -90.6886 219° Southwest 353 406 17,200 2,880 Climbing FAA TRACON SMA TRACON (SMA)
08:21PM 38.5561 -90.7136 221° Southwest 354 407 18,000 2,760 Climbing FAA TRACON SMA TRACON (SMA)
08:22PM 38.5333 -90.7392 221° Southwest 354 407 19,000 3,360 Climbing FAA TRACON SMA TRACON (SMA)
08:22PM 38.5050 -90.7711 221° Southwest 354 407 20,300 3,420 Climbing FAA TRACON SMA TRACON (SMA)
08:22PM 38.4808 -90.7950 218° Southwest 356 410 21,300 3,180 Climbing FAA TRACON SMA TRACON (SMA)
08:23PM 38.4575 -90.8197 220° Southwest 353 406 22,400 3,420 Climbing FAA TRACON SMA TRACON (SMA)
08:23PM 38.4300 -90.8508 222° Southwest 348 400 23,600 3,180 Climbing FAA TRACON SMA TRACON (SMA)
08:24PM 38.4078 -90.8753 221° Southwest 344 396 24,600 2,760 Climbing FAA TRACON SMA TRACON (SMA)
08:24PM 38.3797 -90.9050 220° Southwest 341 392 25,500 2,460 Climbing FAA TRACON SMA TRACON (SMA)
08:24PM 38.3569 -90.9292 220° Southwest 344 396 26,200 1,980 Climbing FAA TRACON SMA TRACON (SMA)
08:24PM 38.3344 -90.9536 220° Southwest 347 399 26,800 1,620 Climbing FAA TRACON SMA TRACON (SMA)
08:25PM 38.3114 -90.9781 220° Southwest 350 403 27,300 1,740 Climbing FAA TRACON SMA TRACON (SMA)
08:25PM 38.2825 -91.0100 221° Southwest 357 411 28,000 1,740 Climbing FAA TRACON SMA TRACON (SMA)
08:26PM 38.2600 -91.0361 222° Southwest 356 410 28,500 2,280 Climbing FAA TRACON SMA TRACON (SMA)
08:26PM 38.2294 -91.0661 218° Southwest 358 412 29,500 2,580 Climbing FAA TRACON SMA TRACON (SMA)
08:26PM 38.2078 -91.0922 223° Southwest 354 407 30,200 2,040 Climbing FAA TRACON SMA TRACON (SMA)
08:27PM 38.1839 -91.1158 218° Southwest 352 405 30,900 2,340 Climbing FAA TRACON SMA TRACON (SMA)
08:27PM 38.1561 -91.1467 221° Southwest 348 400 31,800 2,100 Climbing FAA TRACON SMA TRACON (SMA)
08:27PM 38.1331 -91.1706 219° Southwest 346 398 32,300 1,680 Climbing FAA TRACON SMA TRACON (SMA)
08:27PM 38.1108 -91.1950 221° Southwest 343 395 32,900 1,500 Climbing FAA TRACON SMA TRACON (SMA)
08:28PM 38.0886 -91.2197 221° Southwest 344 396 33,300 1,440 Climbing FAA TRACON SMA TRACON (SMA)
08:28PM 38.0600 -91.2494 219° Southwest 347 399 33,900 1,320 Climbing FAA TRACON SMA TRACON (SMA)
08:29PM 38.0344 -91.3231 246° West 345 397 34,400 1,260 Climbing Kansas City Center
08:30PM 37.9586 -91.4031 220° Southwest 349 402 35,800 1,380 Climbing Kansas City Center
08:31PM 37.8844 -91.4819 220° Southwest 348 400 37,300 1,020 Climbing Kansas City Center
08:32PM 37.8103 -91.5592 219° Southwest 345 397 38,000 300 Climbing Kansas City Center
08:33PM 37.7372 -91.6364 220° Southwest 342 394 38,000  Level Kansas City Center
08:34PM 37.6467 -91.7289 219° Southwest 343 395 38,000  Level Kansas City Center
08:35PM 37.5733 -91.8058 220° Southwest 341 392 38,000  Level Kansas City Center
08:36PM 37.5056 -91.8886 224° Southwest 338 389 38,000  Level Kansas City Center
08:37PM 37.4358 -91.9700 223° Southwest 338 389 38,000  Level Kansas City Center
08:38PM 37.3664 -92.0514 223° Southwest 338 389 38,000  Level Kansas City Center
08:39PM 37.2939 -92.1350 223° Southwest 346 398 38,000  Level Kansas City Center
08:40PM 37.2239 -92.2181 223° Southwest 346 398 38,000  Level Kansas City Center
08:41PM 37.1519 -92.3019 223° Southwest 349 402 38,000  Level Kansas City Center
08:42PM 37.0797 -92.3856 223° Southwest 351 404 38,000  Level Kansas City Center
08:43PM 37.0064 -92.4683 222° Southwest 352 405 38,000  Level Kansas City Center
08:44PM 36.9192 -92.5694 223° Southwest 354 407 38,000  Level Kansas City Center
08:45PM 36.8461 -92.6517 222° Southwest 353 406 38,000  Level Kansas City Center
08:46PM 36.8036 -92.7019 223° Southwest 352 405 38,000  Level Memphis Center
08:47PM 36.7311 -92.7853 223° Southwest 352 405 38,000  Level Memphis Center
08:48PM 36.6608 -92.8686 224° Southwest 357 411 38,000  Level Memphis Center
08:49PM 36.5842 -92.9489 220° Southwest 357 411 38,000  Level Memphis Center
08:50PM 36.5200 -93.0217 222° Southwest 357 411 38,000  Level Memphis Center
08:51PM 36.4453 -93.1044 222° Southwest 357 411 38,000  Level Memphis Center
08:52PM 36.3725 -93.1869 222° Southwest 357 411 38,000  Level Memphis Center
08:53PM 36.2978 -93.2694 222° Southwest 352 405 38,000  Level Memphis Center
08:54PM 36.2250 -93.3517 222° Southwest 352 405 38,000  Level Memphis Center
08:55PM 36.1519 -93.4314 221° Southwest 352 405 38,000  Level Memphis Center
08:56PM 36.0792 -93.5133 222° Southwest 352 405 38,000  Level Memphis Center
08:57PM 36.0061 -93.5950 222° Southwest 358 412 38,000  Level Memphis Center
08:58PM 35.9331 -93.6769 222° Southwest 358 412 38,000  Level Memphis Center
08:59PM 35.8558 -93.7583 221° Southwest 358 412 38,000  Level Memphis Center
09:00PM 35.7828 -93.8397 222° Southwest 358 412 38,000  Level Memphis Center
09:01PM 35.7072 -93.9233 222° Southwest 358 412 38,000  Level Memphis Center
09:02PM 35.6319 -94.0044 221° Southwest 358 412 38,000  Level Memphis Center
09:03PM 35.5586 -94.0881 223° Southwest 358 412 38,000  Level Memphis Center
09:04PM 35.4789 -94.1686 219° Southwest 363 418 38,000  Level Memphis Center
09:05PM 35.4097 -94.2494 224° Southwest 363 418 38,000  Level Memphis Center
09:06PM 35.3319 -94.3325 221° Southwest 363 418 38,000  Level Memphis Center
09:07PM 35.2586 -94.4128 222° Southwest 363 418 38,000  Level Memphis Center
09:08PM 35.1828 -94.4931 221° Southwest 363 418 38,000  Level Memphis Center
09:09PM 35.0769 -94.6153 223° Southwest 370 426 38,000  Level Fort Worth Center
09:10PM 35.0014 -94.6964 221° Southwest 370 426 38,000  Level Fort Worth Center
09:11PM 34.9261 -94.7772 221° Southwest 365 420 38,000  Level Fort Worth Center
09:12PM 34.8525 -94.8581 222° Southwest 360 414 38,000 -900 Level Fort Worth Center
09:13PM 34.7728 -94.9389 220° Southwest 360 414 36,200 -2,100 Descending Fort Worth Center
09:14PM 34.6972 -95.0217 222° Southwest 365 420 33,800 -2,400 Descending Fort Worth Center
09:15PM 34.6194 -95.1072 222° Southwest 365 420 31,400 -2,400 Descending Fort Worth Center
09:16PM 34.5356 -95.1950 221° Southwest 386 444 29,000 -2,400 Descending Fort Worth Center
09:17PM 34.4494 -95.2831 220° Southwest 399 459 26,600 -1,740 Descending Fort Worth Center
09:18PM 34.3656 -95.3731 222° Southwest 404 465 25,600 -1,080 Descending Fort Worth Center
09:19PM 34.2792 -95.4631 221° Southwest 411 473 24,500 -1,080 Descending Fort Worth Center
09:20PM 34.1950 -95.5503 221° Southwest 411 473 23,500 -960 Descending Fort Worth Center
09:21PM 34.1125 -95.6225 216° Southwest 405 466 22,600 -780 Descending Fort Worth Center
09:22PM 34.0303 -95.6967 217° Southwest 394 453 22,000 -300 Descending Fort Worth Center
09:23PM 33.9475 -95.7661 215° Southwest 374 430 22,000 -540 Level Fort Worth Center
09:24PM 33.8631 -95.8350 214° Southwest 374 430 21,000 -1,380 Descending Fort Worth Center
09:25PM 33.7761 -95.9042 213° Southwest 374 430 19,300 -2,100 Descending Fort Worth Center
09:26PM 33.6872 -95.9806 216° Southwest 374 430 16,800 -2,520 Descending Fort Worth Center
09:27PM 33.6169 -96.0417 216° Southwest 368 423 14,400 -2,280 Descending Fort Worth Center
09:29PM 33.5485 -96.1987 242° Southwest  Level FlightAware Approximate
09:29PM 33.4619 -96.1711 242° Southwest 346 398 10,000  Level Fort Worth Center
09:30PM 33.3894 -96.2292 214° Southwest 311 358 10,000 -300 Level Fort Worth Center
09:31PM 33.3356 -96.2747 215° Southwest 276 318 9,400 -540 Descending Fort Worth Center
09:32PM 33.2692 -96.3303 215° Southwest 271 312 9,000 -540 Descending Fort Worth Center
09:33PM 33.2281 -96.3903 231° Southwest 266 306 8,400 -1,380 Descending Fort Worth Center
09:34PM 33.1783 -96.4678 233° Southwest 266 306 6,300 -1,680 Descending Fort Worth Center
09:35PM 33.1161 -96.5006 204° Southwest 272 313 5,100 -660 Descending Fort Worth Center
09:36PM 33.0347 -96.5289 196° South 277 319 5,000 -240 Descending Fort Worth Center
09:37PM 32.9744 -96.5642 206° Southwest 277 319 4,700 -780 Descending Fort Worth Center
09:38PM 32.9122 -96.6289 221° Southwest 270 311 3,500 -1,020 Descending Fort Worth Center
09:39PM 32.8667 -96.6667 215° Southwest 257 296 3,000 -420 Descending Dallas / Fort Worth TRACON
09:40PM 32.8167 -96.7167 220° Southwest 226 260 2,800 -420 Descending Dallas / Fort Worth TRACON
09:41PM 32.7833 -96.7667 232° Southwest 185 213 2,200 -720 Descending Dallas / Fort Worth TRACON
09:42PM 32.8000 -96.8000 301° West 143 165 1,400 -840 Descending Dallas / Fort Worth TRACON
09:45PM 32.8333 -96.8500 278° West  Level FlightAware Approximate